Pont Aven — FNPN — position and weather

sailwx.info

Track history (hours):
 
Tides and Currents Weather Stations Pressure Air Temp Water Temp Dewpoint Dewpoint Depression Visibility Wind Speed Wind Dir Waves Ship Positions

Pont Aven

Last reported at 2017-Apr-28 00:34 UTC. Time now 2017-Apr-28 02:24 UTC.
Position N 50°06' W 004°29'.

Length 185 m; beam 31 m.

Type: Passenger vessel. MMSI: 228183600.

Date/timePositionNaut miles runAvg speedWind from/ knotsBaromVisibWave heightAir tempDewpointWater temp
2017-Apr-28 00:34N 50°06' W 004°29'217.1
2017-Apr-28 00:29N 50°07' W 004°30'714.6
2017-Apr-28 00:01N 50°14' W 004°34'0 0.9
2017-Apr-27 23:31N 50°14' W 004°34'2 3.5
2017-Apr-27 23:01N 50°14' W 004°31'3 5.1
2017-Apr-27 22:30N 50°15' W 004°27'1 1.3
2017-Apr-27 22:01N 50°16' W 004°27'1 1.1
2017-Apr-27 21:27N 50°16' W 004°27'0 0.8
2017-Apr-27 21:00N 50°16' W 004°27'4 7.3
2017-Apr-27 20:30N 50°17' W 004°22'714.4
2017-Apr-27 20:00N 50°19' W 004°11'3 5.6
2017-Apr-27 19:29N 50°22' W 004°09'0 0.0
2017-Apr-27 18:59N 50°22' W 004°09'0 0.0
2017-Apr-27 18:29N 50°22' W 004°09'0 0.0
2017-Apr-27 18:00N 50°22' W 004°09'0 0.0
2017-Apr-27 17:26N 50°22' W 004°09'0 0.0
2017-Apr-27 15:18N 50°22' W 004°09'1 1.9
2017-Apr-27 15:01N 50°21' W 004°09'1818.3
2017-Apr-27 14:01N 50°06' W 004°23'1223.4
2017-Apr-27 13:30N 49°55' W 004°29'6322.4
2017-Apr-27 10:41N 48°56' W 005°05'421.6
2017-Apr-27 10:30N 48°52' W 005°07'1121.2
2017-Apr-27 10:00N 48°42' W 005°13'1020.3
2017-Apr-27 09:30N 48°34' W 005°22'1920.4
2017-Apr-27 08:35N 48°15' W 005°19'221.6
2017-Apr-27 08:30N 48°13' W 005°19'1321.6
2017-Apr-27 07:54N 48°01' W 005°15'1021.3
2017-Apr-27 07:28N 47°51' W 005°12'33 1.2
2017-Apr-26 03:16N 48°24' W 005°21'621.6
2017-Apr-26 03:00N 48°29' W 005°23'1020.4
2017-Apr-26 02:30N 48°38' W 005°14'1121.1
2017-Apr-26 02:00N 48°45' W 005°03'1121.7
2017-Apr-26 01:30N 48°52' W 004°50'7724.3
2017-Apr-25 22:20N 49°45' W 003°24'824.7
2017-Apr-25 22:01N 49°51' W 003°15'1224.0
2017-Apr-25 21:31N 49°56' W 002°58'1223.1
2017-Apr-25 20:59N 50°01' W 002°41'6720.6
2017-Apr-25 17:45N 50°33' W 001°10'519.7
2017-Apr-25 17:30N 50°36' W 001°04'714.6
2017-Apr-25 17:00N 50°43' W 001°01'612.7
2017-Apr-25 16:31N 50°49' W 001°07'1 1.2
2017-Apr-25 16:00N 50°49' W 001°06'0 0.0
2017-Apr-25 15:30N 50°49' W 001°06'0 0.0
2017-Apr-25 15:00N 50°49' W 001°06'0 0.0
2017-Apr-25 14:30N 50°49' W 001°06'0 0.0
2017-Apr-25 13:30N 50°49' W 001°06'0 0.8
2017-Apr-25 13:00N 50°49' W 001°06'510.0
2017-Apr-25 12:31N 50°44' W 001°04'714.5
2017-Apr-25 12:00N 50°37' W 001°07'17222.8
2017-Apr-25 04:29N 48°55' W 004°41'1223.9
2017-Apr-25 04:01N 48°49' W 004°55'1224.0
2017-Apr-25 03:30N 48°41' W 005°09'1224.5
2017-Apr-25 03:00N 48°32' W 005°21'1523.5
2017-Apr-25 02:21N 48°17' W 005°22'1024.3
2017-Apr-25 01:57N 48°07' W 005°19'1224.4
2017-Apr-25 01:28N 47°56' W 005°14'1224.0
2017-Apr-25 00:58N 47°44' W 005°09'1223.9
2017-Apr-25 00:29N 47°33' W 005°05'13423.2
2017-Apr-24 18:42N 45°22' W 004°22'523.0
2017-Apr-24 18:30N 45°17' W 004°20'1123.2
2017-Apr-24 18:00N 45°06' W 004°16'4123.4
2017-Apr-24 16:15N 44°26' W 004°04'723.4
2017-Apr-24 15:58N 44°20' W 004°02'1123.3
2017-Apr-24 15:29N 44°09' W 003°58'1123.3
2017-Apr-24 15:01N 43°58' W 003°55'1223.2
2017-Apr-24 14:30N 43°47' W 003°51'1910.6
2017-Apr-24 12:42N 43°28' W 003°48'0 0.0
2017-Apr-24 12:30N 43°28' W 003°48'0 0.0
2017-Apr-24 11:59N 43°28' W 003°48'0 0.0
2017-Apr-24 11:22N 43°28' W 003°48'21020.1
2017-Apr-24 00:56N 46°53' W 004°52'4023.5
2017-Apr-23 23:15N 47°31' W 005°05'623.2
2017-Apr-23 23:01N 47°37' W 005°07'1223.0
2017-Apr-23 22:30N 47°48' W 005°11'1222.6
2017-Apr-23 21:59N 47°59' W 005°14'1123.0
2017-Apr-23 21:30N 48°11' W 005°17'1223.6
2017-Apr-23 20:59N 48°22' W 005°21'1122.7
2017-Apr-23 20:30N 48°33' W 005°21'1325.1
2017-Apr-23 20:01N 48°44' W 005°10'1325.1
2017-Apr-23 19:31N 48°55' W 005°02'1224.8
2017-Apr-23 19:01N 49°06' W 004°55'1224.5
2017-Apr-23 18:31N 49°18' W 004°47'2623.9
2017-Apr-23 17:27N 49°41' W 004°32'1023.6
2017-Apr-23 17:00N 49°51' W 004°28'1223.4
2017-Apr-23 16:31N 50°02' W 004°23'1122.9
2017-Apr-23 16:00N 50°13' W 004°17'1019.2
2017-Apr-23 15:30N 50°21' W 004°09'1 0.2
2017-Apr-23 12:17N 50°22' W 004°09'2 5.8
2017-Apr-23 11:57N 50°20' W 004°10'919.6
2017-Apr-23 11:31N 50°11' W 004°09'1224.1
2017-Apr-23 11:00N 49°59' W 004°06'1324.0
2017-Apr-23 10:28N 49°47' W 004°03'1123.8
2017-Apr-23 10:01N 49°36' W 004°01'52 9.5
2017-Apr-23 04:31N 48°43' W 003°57'1 7.9
2017-Apr-23 04:27N 48°44' W 003°57'1016.3
2017-Apr-23 03:50N 48°52' W 004°06'21619.5
2017-Apr-22 16:47N 51°31' W 007°54'619.7
2017-Apr-22 16:30N 51°35' W 008°00'1020.1
2017-Apr-22 16:00N 51°43' W 008°10'815.7
2017-Apr-22 15:30N 51°50' W 008°16'2 4.0
2017-Apr-22 15:00N 51°50' W 008°20'0 0.0
2017-Apr-22 14:30N 51°50' W 008°19'0 0.0
2017-Apr-22 13:30N 51°50' W 008°19'0 0.0
2017-Apr-22 13:00N 51°50' W 008°19'0 0.0
2017-Apr-22 12:30N 51°50' W 008°19'0 0.0
2017-Apr-22 12:00N 51°50' W 008°19'0 0.0
2017-Apr-22 11:30N 51°50' W 008°19'0 0.0
2017-Apr-22 11:00N 51°50' W 008°19'0 0.0
2017-Apr-22 10:30N 51°50' W 008°19'0 0.0
2017-Apr-22 10:00N 51°50' W 008°19'0 0.0
2017-Apr-22 09:30N 51°50' W 008°19'0 0.0
2017-Apr-22 09:00N 51°50' W 008°19'0 0.0
2017-Apr-22 08:30N 51°50' W 008°19'1 1.6
2017-Apr-22 08:01N 51°51' W 008°19'3 6.9
2017-Apr-22 07:30N 51°48' W 008°16'817.0
2017-Apr-22 07:00N 51°41' W 008°07'1019.4
2017-Apr-22 06:30N 51°34' W 007°56'1019.3
2017-Apr-22 06:00N 51°27' W 007°45'1019.3
2017-Apr-22 05:30N 51°20' W 007°34'7419.6
2017-Apr-22 01:43N 50°29' W 006°09'419.4
2017-Apr-22 01:30N 50°26' W 006°04'1019.2
2017-Apr-22 01:00N 50°19' W 005°55'1020.2
2017-Apr-22 00:30N 50°09' W 005°54'4519.6
2017-Apr-21 22:11N 49°33' W 005°09'420.3
2017-Apr-21 22:00N 49°31' W 005°05'1120.5
2017-Apr-21 21:29N 49°24' W 004°53'1520.5
2017-Apr-21 20:45N 49°14' W 004°36'42 2.1
2017-Apr-21 00:53N 49°51' W 004°07'715.0
2017-Apr-21 00:27N 49°58' W 004°09'715.0
2017-Apr-21 00:00N 50°04' W 004°08'815.8
2017-Apr-20 23:30N 50°12' W 004°08'2 4.8
2017-Apr-20 23:01N 50°15' W 004°08'0 0.2
2017-Apr-20 22:31N 50°15' W 004°08'0 0.4
2017-Apr-20 22:01N 50°15' W 004°09'0 0.6
2017-Apr-20 21:31N 50°15' W 004°09'0 0.5
2017-Apr-20 21:01N 50°15' W 004°09'1 1.6
2017-Apr-20 20:23N 50°16' W 004°10'5 9.7
2017-Apr-20 19:55N 50°20' W 004°09'1 0.3
2017-Apr-20 15:08N 50°22' W 004°09'0 2.5
2017-Apr-20 15:01N 50°22' W 004°09'1615.6
2017-Apr-20 14:01N 50°07' W 004°16'1120.7
2017-Apr-20 13:30N 49°56' W 004°19'1020.7
2017-Apr-20 13:00N 49°46' W 004°22'5720.3
2017-Apr-20 10:12N 48°51' W 004°44'523.4
2017-Apr-20 10:01N 48°47' W 004°46'1223.3
2017-Apr-20 09:31N 48°35' W 004°50'917.2
2017-Apr-20 09:01N 48°27' W 004°51'714.2
2017-Apr-20 08:30N 48°20' W 004°48'1020.2
2017-Apr-20 08:00N 48°10' W 004°46'917.8
2017-Apr-20 07:31N 48°01' W 004°45'1019.5
2017-Apr-20 07:01N 47°51' W 004°44'1122.9
2017-Apr-20 06:30N 47°40' W 004°41'16 0.6
2017-Apr-19 03:56N 47°45' W 005°03'1122.3
2017-Apr-19 03:26N 47°56' W 005°07'1122.8
2017-Apr-19 02:56N 48°07' W 005°10'1023.1
2017-Apr-19 02:30N 48°17' W 005°08'1020.7
2017-Apr-19 02:00N 48°27' W 005°02'1019.9
2017-Apr-19 01:31N 48°34' W 004°52'1224.3
2017-Apr-19 01:00N 48°43' W 004°40'7723.2
2017-Apr-18 21:40N 49°42' W 003°23'922.8
2017-Apr-18 21:16N 49°48' W 003°12'723.0
2017-Apr-18 20:58N 49°52' W 003°05'8324.2
2017-Apr-18 17:32N 50°34' W 001°12'125.2
2017-Apr-18 17:31N 50°34' W 001°11'1019.2
2017-Apr-18 17:00N 50°42' W 001°03'612.5
2017-Apr-18 16:30N 50°48' W 001°07'1 2.3
2017-Apr-18 16:00N 50°49' W 001°06'0 0.0
2017-Apr-18 15:30N 50°49' W 001°06'0 0.0
2017-Apr-18 15:00N 50°49' W 001°06'0 0.0
2017-Apr-18 14:30N 50°49' W 001°06'0 0.0
2017-Apr-18 13:30N 50°49' W 001°06'0 0.5
2017-Apr-18 13:00N 50°49' W 001°06'5 9.1
2017-Apr-18 12:30N 50°44' W 001°04'611.1
2017-Apr-18 12:00N 50°39' W 001°05'1721.3
2017-Apr-18 11:13N 50°27' W 001°24'15922.5
2017-Apr-18 04:09N 48°47' W 004°34'322.6
2017-Apr-18 04:00N 48°44' W 004°37'1122.6
2017-Apr-18 03:30N 48°36' W 004°49'1121.7
2017-Apr-18 03:01N 48°28' W 004°60'917.3
2017-Apr-18 02:30N 48°21' W 005°07'1122.8
2017-Apr-18 02:00N 48°10' W 005°11'1122.7
2017-Apr-18 01:31N 47°58' W 005°08'1222.7
2017-Apr-18 00:58N 47°46' W 005°05'  
Track history (hours):
 
Tides and Currents Weather Stations Pressure Air Temp Water Temp Dewpoint Dewpoint Depression Visibility Wind Speed Wind Dir Waves Ship Positions

Pont Aven

Last reported at 2017-Apr-28 00:34 UTC. Time now 2017-Apr-28 02:25 UTC.
Position N 50°06' W 004°29'.

Length 185 m; beam 31 m.

Type: Passenger vessel. MMSI: 228183600.

Date/timePositionNaut miles runAvg speedWind from/ knotsBaromVisibWave heightAir tempDewpointWater temp
2017-Apr-28 00:34N 50°06' W 004°29'217.1
2017-Apr-28 00:29N 50°07' W 004°30'714.6
2017-Apr-28 00:01N 50°14' W 004°34'0 0.9
2017-Apr-27 23:31N 50°14' W 004°34'2 3.5
2017-Apr-27 23:01N 50°14' W 004°31'3 5.1
2017-Apr-27 22:30N 50°15' W 004°27'1 1.3
2017-Apr-27 22:01N 50°16' W 004°27'1 1.1
2017-Apr-27 21:27N 50°16' W 004°27'0 0.8
2017-Apr-27 21:00N 50°16' W 004°27'4 7.3
2017-Apr-27 20:30N 50°17' W 004°22'714.4
2017-Apr-27 20:00N 50°19' W 004°11'3 5.6
2017-Apr-27 19:29N 50°22' W 004°09'0 0.0
2017-Apr-27 18:59N 50°22' W 004°09'0 0.0
2017-Apr-27 18:29N 50°22' W 004°09'0 0.0
2017-Apr-27 18:00N 50°22' W 004°09'0 0.0
2017-Apr-27 17:26N 50°22' W 004°09'0 0.0
2017-Apr-27 15:18N 50°22' W 004°09'1 1.9
2017-Apr-27 15:01N 50°21' W 004°09'1818.3
2017-Apr-27 14:01N 50°06' W 004°23'1223.4
2017-Apr-27 13:30N 49°55' W 004°29'6322.4
2017-Apr-27 10:41N 48°56' W 005°05'421.6
2017-Apr-27 10:30N 48°52' W 005°07'1121.2
2017-Apr-27 10:00N 48°42' W 005°13'1020.3
2017-Apr-27 09:30N 48°34' W 005°22'1920.4
2017-Apr-27 08:35N 48°15' W 005°19'221.6
2017-Apr-27 08:30N 48°13' W 005°19'1321.6
2017-Apr-27 07:54N 48°01' W 005°15'1021.3
2017-Apr-27 07:28N 47°51' W 005°12'33 1.2
2017-Apr-26 03:16N 48°24' W 005°21'621.6
2017-Apr-26 03:00N 48°29' W 005°23'1020.4
2017-Apr-26 02:30N 48°38' W 005°14'1121.1
2017-Apr-26 02:00N 48°45' W 005°03'1121.7
2017-Apr-26 01:30N 48°52' W 004°50'7724.3
2017-Apr-25 22:20N 49°45' W 003°24'824.7
2017-Apr-25 22:01N 49°51' W 003°15'1224.0
2017-Apr-25 21:31N 49°56' W 002°58'1223.1
2017-Apr-25 20:59N 50°01' W 002°41'6720.6
2017-Apr-25 17:45N 50°33' W 001°10'519.7
2017-Apr-25 17:30N 50°36' W 001°04'714.6
2017-Apr-25 17:00N 50°43' W 001°01'612.7
2017-Apr-25 16:31N 50°49' W 001°07'1 1.2
2017-Apr-25 16:00N 50°49' W 001°06'0 0.0
2017-Apr-25 15:30N 50°49' W 001°06'0 0.0
2017-Apr-25 15:00N 50°49' W 001°06'0 0.0
2017-Apr-25 14:30N 50°49' W 001°06'0 0.0
2017-Apr-25 13:30N 50°49' W 001°06'0 0.8
2017-Apr-25 13:00N 50°49' W 001°06'510.0
2017-Apr-25 12:31N 50°44' W 001°04'714.5
2017-Apr-25 12:00N 50°37' W 001°07'17222.8
2017-Apr-25 04:29N 48°55' W 004°41'1223.9
2017-Apr-25 04:01N 48°49' W 004°55'1224.0
2017-Apr-25 03:30N 48°41' W 005°09'1224.5
2017-Apr-25 03:00N 48°32' W 005°21'1523.5
2017-Apr-25 02:21N 48°17' W 005°22'1024.3
2017-Apr-25 01:57N 48°07' W 005°19'1224.4
2017-Apr-25 01:28N 47°56' W 005°14'1224.0
2017-Apr-25 00:58N 47°44' W 005°09'1223.9
2017-Apr-25 00:29N 47°33' W 005°05'13423.2
2017-Apr-24 18:42N 45°22' W 004°22'523.0
2017-Apr-24 18:30N 45°17' W 004°20'1123.2
2017-Apr-24 18:00N 45°06' W 004°16'4123.4
2017-Apr-24 16:15N 44°26' W 004°04'723.4
2017-Apr-24 15:58N 44°20' W 004°02'1123.3
2017-Apr-24 15:29N 44°09' W 003°58'1123.3
2017-Apr-24 15:01N 43°58' W 003°55'1223.2
2017-Apr-24 14:30N 43°47' W 003°51'1910.6
2017-Apr-24 12:42N 43°28' W 003°48'0 0.0
2017-Apr-24 12:30N 43°28' W 003°48'0 0.0
2017-Apr-24 11:59N 43°28' W 003°48'0 0.0
2017-Apr-24 11:22N 43°28' W 003°48'21020.1
2017-Apr-24 00:56N 46°53' W 004°52'4023.5
2017-Apr-23 23:15N 47°31' W 005°05'623.2
2017-Apr-23 23:01N 47°37' W 005°07'1223.0
2017-Apr-23 22:30N 47°48' W 005°11'1222.6
2017-Apr-23 21:59N 47°59' W 005°14'1123.0
2017-Apr-23 21:30N 48°11' W 005°17'1223.6
2017-Apr-23 20:59N 48°22' W 005°21'1122.7
2017-Apr-23 20:30N 48°33' W 005°21'1325.1
2017-Apr-23 20:01N 48°44' W 005°10'1325.1
2017-Apr-23 19:31N 48°55' W 005°02'1224.8
2017-Apr-23 19:01N 49°06' W 004°55'1224.5
2017-Apr-23 18:31N 49°18' W 004°47'2623.9
2017-Apr-23 17:27N 49°41' W 004°32'1023.6
2017-Apr-23 17:00N 49°51' W 004°28'1223.4
2017-Apr-23 16:31N 50°02' W 004°23'1122.9
2017-Apr-23 16:00N 50°13' W 004°17'1019.2
2017-Apr-23 15:30N 50°21' W 004°09'1 0.2
2017-Apr-23 12:17N 50°22' W 004°09'2 5.8
2017-Apr-23 11:57N 50°20' W 004°10'919.6
2017-Apr-23 11:31N 50°11' W 004°09'1224.1
2017-Apr-23 11:00N 49°59' W 004°06'1324.0
2017-Apr-23 10:28N 49°47' W 004°03'1123.8
2017-Apr-23 10:01N 49°36' W 004°01'52 9.5
2017-Apr-23 04:31N 48°43' W 003°57'1 7.9
2017-Apr-23 04:27N 48°44' W 003°57'1016.3
2017-Apr-23 03:50N 48°52' W 004°06'21619.5
2017-Apr-22 16:47N 51°31' W 007°54'619.7
2017-Apr-22 16:30N 51°35' W 008°00'1020.1
2017-Apr-22 16:00N 51°43' W 008°10'815.7
2017-Apr-22 15:30N 51°50' W 008°16'2 4.0
2017-Apr-22 15:00N 51°50' W 008°20'0 0.0
2017-Apr-22 14:30N 51°50' W 008°19'0 0.0
2017-Apr-22 13:30N 51°50' W 008°19'0 0.0
2017-Apr-22 13:00N 51°50' W 008°19'0 0.0
2017-Apr-22 12:30N 51°50' W 008°19'0 0.0
2017-Apr-22 12:00N 51°50' W 008°19'0 0.0
2017-Apr-22 11:30N 51°50' W 008°19'0 0.0
2017-Apr-22 11:00N 51°50' W 008°19'0 0.0
2017-Apr-22 10:30N 51°50' W 008°19'0 0.0
2017-Apr-22 10:00N 51°50' W 008°19'0 0.0
2017-Apr-22 09:30N 51°50' W 008°19'0 0.0
2017-Apr-22 09:00N 51°50' W 008°19'0 0.0
2017-Apr-22 08:30N 51°50' W 008°19'1 1.6
2017-Apr-22 08:01N 51°51' W 008°19'3 6.9
2017-Apr-22 07:30N 51°48' W 008°16'817.0
2017-Apr-22 07:00N 51°41' W 008°07'1019.4
2017-Apr-22 06:30N 51°34' W 007°56'1019.3
2017-Apr-22 06:00N 51°27' W 007°45'1019.3
2017-Apr-22 05:30N 51°20' W 007°34'7419.6
2017-Apr-22 01:43N 50°29' W 006°09'419.4
2017-Apr-22 01:30N 50°26' W 006°04'1019.2
2017-Apr-22 01:00N 50°19' W 005°55'1020.2
2017-Apr-22 00:30N 50°09' W 005°54'4519.6
2017-Apr-21 22:11N 49°33' W 005°09'420.3
2017-Apr-21 22:00N 49°31' W 005°05'1120.5
2017-Apr-21 21:29N 49°24' W 004°53'1520.5
2017-Apr-21 20:45N 49°14' W 004°36'42 2.1
2017-Apr-21 00:53N 49°51' W 004°07'715.0
2017-Apr-21 00:27N 49°58' W 004°09'715.0
2017-Apr-21 00:00N 50°04' W 004°08'815.8
2017-Apr-20 23:30N 50°12' W 004°08'2 4.8
2017-Apr-20 23:01N 50°15' W 004°08'0 0.2
2017-Apr-20 22:31N 50°15' W 004°08'0 0.4
2017-Apr-20 22:01N 50°15' W 004°09'0 0.6
2017-Apr-20 21:31N 50°15' W 004°09'0 0.5
2017-Apr-20 21:01N 50°15' W 004°09'1 1.6
2017-Apr-20 20:23N 50°16' W 004°10'5 9.7
2017-Apr-20 19:55N 50°20' W 004°09'1 0.3
2017-Apr-20 15:08N 50°22' W 004°09'0 2.5
2017-Apr-20 15:01N 50°22' W 004°09'1615.6
2017-Apr-20 14:01N 50°07' W 004°16'1120.7
2017-Apr-20 13:30N 49°56' W 004°19'1020.7
2017-Apr-20 13:00N 49°46' W 004°22'5720.3
2017-Apr-20 10:12N 48°51' W 004°44'523.4
2017-Apr-20 10:01N 48°47' W 004°46'1223.3
2017-Apr-20 09:31N 48°35' W 004°50'917.2
2017-Apr-20 09:01N 48°27' W 004°51'714.2
2017-Apr-20 08:30N 48°20' W 004°48'1020.2
2017-Apr-20 08:00N 48°10' W 004°46'917.8
2017-Apr-20 07:31N 48°01' W 004°45'1019.5
2017-Apr-20 07:01N 47°51' W 004°44'1122.9
2017-Apr-20 06:30N 47°40' W 004°41'16 0.6
2017-Apr-19 03:56N 47°45' W 005°03'1122.3
2017-Apr-19 03:26N 47°56' W 005°07'1122.8
2017-Apr-19 02:56N 48°07' W 005°10'1023.1
2017-Apr-19 02:30N 48°17' W 005°08'1020.7
2017-Apr-19 02:00N 48°27' W 005°02'1019.9
2017-Apr-19 01:31N 48°34' W 004°52'1224.3
2017-Apr-19 01:00N 48°43' W 004°40'7723.2
2017-Apr-18 21:40N 49°42' W 003°23'922.8
2017-Apr-18 21:16N 49°48' W 003°12'723.0
2017-Apr-18 20:58N 49°52' W 003°05'8324.2
2017-Apr-18 17:32N 50°34' W 001°12'125.2
2017-Apr-18 17:31N 50°34' W 001°11'1019.2
2017-Apr-18 17:00N 50°42' W 001°03'612.5
2017-Apr-18 16:30N 50°48' W 001°07'1 2.3
2017-Apr-18 16:00N 50°49' W 001°06'0 0.0
2017-Apr-18 15:30N 50°49' W 001°06'0 0.0
2017-Apr-18 15:00N 50°49' W 001°06'0 0.0
2017-Apr-18 14:30N 50°49' W 001°06'0 0.0
2017-Apr-18 13:30N 50°49' W 001°06'0 0.5
2017-Apr-18 13:00N 50°49' W 001°06'5 9.1
2017-Apr-18 12:30N 50°44' W 001°04'611.1
2017-Apr-18 12:00N 50°39' W 001°05'1721.3
2017-Apr-18 11:13N 50°27' W 001°24'15922.5
2017-Apr-18 04:09N 48°47' W 004°34'322.6
2017-Apr-18 04:00N 48°44' W 004°37'1122.6
2017-Apr-18 03:30N 48°36' W 004°49'1121.7
2017-Apr-18 03:01N 48°28' W 004°60'917.3
2017-Apr-18 02:30N 48°21' W 005°07'1122.8
2017-Apr-18 02:00N 48°10' W 005°11'1122.7
2017-Apr-18 01:31N 47°58' W 005°08'1222.7
2017-Apr-18 00:58N 47°46' W 005°05'  

Dump ship's entire track history